createdAt,value
2022-08-24T00:01:53.849Z,100764.34
2022-08-24T00:04:20.859Z,100765.44
2022-08-24T00:06:47.790Z,100763.72
2022-08-24T00:09:14.684Z,100762.06
2022-08-24T00:11:42.313Z,100767.47
2022-08-24T00:14:11.685Z,100764.81
2022-08-24T00:16:38.729Z,100764.94
2022-08-24T00:19:05.991Z,100765.91
2022-08-24T00:21:33.884Z,100758.88
2022-08-24T00:24:03.126Z,100761.66
2022-08-24T00:26:30.458Z,100764.31
2022-08-24T00:28:58.493Z,100749.31
2022-08-24T00:31:26.187Z,100747.59
2022-08-24T00:33:53.480Z,100742.25
2022-08-24T00:36:22.237Z,100742.13
2022-08-24T00:38:50.004Z,100751.72
2022-08-24T00:41:17.928Z,100753.56
2022-08-24T00:43:59.866Z,100752.69
2022-08-24T00:46:33.755Z,100750.03
2022-08-24T00:49:10.055Z,100750.25
2022-08-24T00:51:42.064Z,100744.19
2022-08-24T00:54:14.035Z,100749.75
2022-08-24T00:56:49.208Z,100743.56
2022-08-24T00:59:22.111Z,100747.19
2022-08-24T01:01:51.518Z,100752.53
2022-08-24T01:04:29.312Z,100743.78
2022-08-24T01:06:59.576Z,100742.13
2022-08-24T01:09:26.461Z,100727.94
2022-08-24T01:11:53.999Z,100732.50
2022-08-24T01:14:23.297Z,100734.34
2022-08-24T01:17:09.244Z,100744.03
2022-08-24T01:19:52.067Z,100758.34
2022-08-24T01:22:49.532Z,100740.72
2022-08-24T01:25:17.047Z,100741.59
2022-08-24T01:27:45.369Z,100743.50
2022-08-24T01:30:16.191Z,100742.63
2022-08-24T01:32:56.446Z,100740.94
2022-08-24T01:35:24.141Z,100735.72
2022-08-24T01:37:51.894Z,100731.25
2022-08-24T01:40:20.347Z,100726.91
2022-08-24T01:42:52.887Z,100734.91
2022-08-24T01:45:20.510Z,100733.19
2022-08-24T01:47:47.542Z,100727.84
2022-08-24T01:50:14.650Z,100735.84
2022-08-24T01:53:03.891Z,100732.31
2022-08-24T01:55:30.701Z,100727.13
2022-08-24T01:57:58.328Z,100724.56
2022-08-24T02:00:25.617Z,100723.69
2022-08-24T02:02:52.669Z,100729.03
2022-08-24T02:05:19.661Z,100728.22
2022-08-24T02:07:46.518Z,100722.97
2022-08-24T02:10:15.126Z,100733.75
2022-08-24T02:12:45.473Z,100740.91
2022-08-24T02:15:13.101Z,100724.06
2022-08-24T02:17:41.006Z,100734.72
2022-08-24T02:20:08.818Z,100742.72
2022-08-24T02:22:35.767Z,100746.22
2022-08-24T02:25:02.654Z,100747.19
2022-08-24T02:27:29.569Z,100737.50
2022-08-24T02:29:56.406Z,100733.13
2022-08-24T02:32:23.333Z,100742.94
2022-08-24T02:34:50.182Z,100735.91
2022-08-24T02:37:21.629Z,100729.75
2022-08-24T02:39:48.577Z,100730.69
2022-08-24T02:42:15.836Z,100717.38
2022-08-24T02:44:42.698Z,100713.03
2022-08-24T02:47:10.525Z,100721.84
2022-08-24T02:49:38.100Z,100714.69
2022-08-24T02:52:05.230Z,100709.59
2022-08-24T02:54:32.152Z,100708.78
2022-08-24T02:56:59.020Z,100709.59
2022-08-24T02:59:26.095Z,100707.91
2022-08-24T03:01:53.519Z,100697.25
2022-08-24T03:04:20.698Z,100686.59
2022-08-24T03:06:47.867Z,100692.03
2022-08-24T03:09:15.030Z,100689.28
2022-08-24T03:11:45.285Z,100688.50
2022-08-24T03:14:13.290Z,100694.81
2022-08-24T03:16:40.245Z,100686.59
2022-08-24T03:19:07.105Z,100680.53
2022-08-24T03:21:34.002Z,100687.78
2022-08-24T03:24:00.929Z,100690.44
2022-08-24T03:26:27.843Z,100691.44
2022-08-24T03:28:54.680Z,100699.41
2022-08-24T03:31:22.004Z,100687.91
2022-08-24T03:33:49.668Z,100689.72
2022-08-24T03:36:16.643Z,100681.84
2022-08-24T03:38:43.971Z,100670.34
2022-08-24T03:41:11.528Z,100675.69
2022-08-24T03:43:51.696Z,100677.47
2022-08-24T03:46:22.568Z,100680.28
2022-08-24T03:48:52.790Z,100666.97
2022-08-24T03:51:24.113Z,100658.09
2022-08-24T03:53:52.852Z,100654.59
2022-08-24T03:56:19.824Z,100644.03
2022-08-24T03:58:47.740Z,100634.22
2022-08-24T04:01:15.714Z,100637.88
2022-08-24T04:03:44.868Z,100630.00
2022-08-24T04:06:13.218Z,100634.47
2022-08-24T04:08:41.882Z,100649.50
2022-08-24T04:11:18.350Z,100647.78
2022-08-24T04:13:46.160Z,100642.56
2022-08-24T04:16:15.808Z,100647.91
2022-08-24T04:18:43.104Z,100648.84
2022-08-24T04:21:21.710Z,100656.03
2022-08-24T04:23:49.033Z,100650.69
2022-08-24T04:26:44.914Z,100640.28
2022-08-24T04:29:09.730Z,100633.97
2022-08-24T04:31:38.345Z,100645.59
2022-08-24T04:34:06.714Z,100664.09
2022-08-24T04:36:34.117Z,100668.56
2022-08-24T04:39:01.904Z,100667.63
2022-08-24T04:41:31.254Z,100672.81
2022-08-24T04:43:59.679Z,100676.25
2022-08-24T04:46:27.335Z,100669.22
2022-08-24T04:48:54.911Z,100680.72
2022-08-24T04:51:22.388Z,100684.34
2022-08-24T04:53:50.832Z,100701.28
2022-08-24T04:56:24.185Z,100702.25
2022-08-24T04:58:53.254Z,100705.88
2022-08-24T05:01:24.173Z,100680.09
2022-08-24T05:03:54.405Z,100688.94
2022-08-24T05:06:32.818Z,100667.50
2022-08-24T05:09:00.878Z,100661.94
2022-08-24T05:11:28.753Z,100637.88
2022-08-24T05:13:57.232Z,100641.38
2022-08-24T05:16:25.459Z,100667.91
2022-08-24T05:18:52.592Z,100668.41
2022-08-24T05:21:22.070Z,100635.50
2022-08-24T05:23:49.335Z,100648.47
2022-08-24T05:26:23.160Z,100654.63
2022-08-24T05:28:50.758Z,100642.03
2022-08-24T05:31:24.263Z,100635.75
2022-08-24T05:33:51.761Z,100627.50
2022-08-24T05:36:25.271Z,100617.72
2022-08-24T05:38:55.328Z,100628.13
2022-08-24T05:41:23.339Z,100621.94
2022-08-24T05:43:51.462Z,100629.84
2022-08-24T05:46:19.579Z,100623.66
2022-08-24T05:48:52.540Z,100626.19
2022-08-24T05:51:20.690Z,100637.47
2022-08-24T05:53:48.065Z,100628.53
2022-08-24T05:56:17.691Z,100631.19
2022-08-24T05:58:44.897Z,100637.25
2022-08-24T06:01:24.549Z,100632.78
2022-08-24T06:03:53.755Z,100646.97
2022-08-24T06:06:22.338Z,100628.53
2022-08-24T06:08:52.710Z,100610.97
2022-08-24T06:11:29.746Z,100626.94
2022-08-24T06:14:07.187Z,100641.94
2022-08-24T06:16:45.599Z,100647.28
2022-08-24T06:19:19.491Z,100653.47
2022-08-24T06:21:49.998Z,100658.78
2022-08-24T06:24:17.590Z,100660.50
2022-08-24T06:27:04.577Z,100652.50
2022-08-24T06:29:34.911Z,100650.81
2022-08-24T06:32:01.856Z,100652.38
2022-08-24T06:34:29.091Z,100654.94
2022-08-24T06:36:56.118Z,100652.28
2022-08-24T06:39:24.882Z,100656.84
2022-08-24T06:41:52.787Z,100642.09
2022-08-24T06:44:19.910Z,100651.03
2022-08-24T06:46:48.833Z,100656.59
2022-08-24T06:49:16.215Z,100652.25
2022-08-24T06:51:45.476Z,100658.53
2022-08-24T06:54:17.385Z,100655.00
2022-08-24T06:56:44.596Z,100656.94
2022-08-24T06:59:11.684Z,100660.56
2022-08-24T07:01:38.741Z,100662.41
2022-08-24T07:04:05.810Z,100663.34
2022-08-24T07:06:33.041Z,100661.66
2022-08-24T07:09:00.728Z,100654.72
2022-08-24T07:11:28.629Z,100660.91
2022-08-24T07:13:55.724Z,100661.88
2022-08-24T07:16:23.121Z,100659.47
2022-08-24T07:18:51.097Z,100654.13
2022-08-24T07:21:21.473Z,100654.22
2022-08-24T07:23:50.598Z,100651.69
2022-08-24T07:26:26.162Z,100651.69
2022-08-24T07:29:06.521Z,100650.00
2022-08-24T07:31:39.188Z,100639.34
2022-08-24T07:34:08.780Z,100640.31
2022-08-24T07:36:43.847Z,100641.28
2022-08-24T07:39:12.070Z,100634.22
2022-08-24T07:44:32.961Z,100636.03
2022-08-24T07:47:10.542Z,100639.56
2022-08-24T07:49:49.249Z,100638.69
2022-08-24T07:52:17.127Z,100632.56
2022-08-24T07:54:44.301Z,100628.19
2022-08-24T07:57:11.716Z,100642.34
2022-08-24T07:59:39.694Z,100636.31
2022-08-24T08:02:06.914Z,100638.09
2022-08-24T08:04:34.664Z,100640.78
2022-08-24T08:07:03.426Z,100636.41
2022-08-24T08:09:33.621Z,100634.72
2022-08-24T08:12:01.738Z,100636.53
2022-08-24T08:14:30.822Z,100625.97
2022-08-24T08:16:59.524Z,100635.66
2022-08-24T08:19:27.458Z,100636.63
2022-08-24T08:22:14.089Z,100630.44
2022-08-24T08:24:45.445Z,100622.56
2022-08-24T08:27:15.546Z,100623.31
2022-08-24T08:29:45.380Z,100629.38
2022-08-24T08:32:17.783Z,100631.06
2022-08-24T08:34:45.579Z,100628.31
2022-08-24T08:37:14.491Z,100628.19
2022-08-24T08:39:42.079Z,100628.91
2022-08-24T08:42:21.744Z,100619.25
2022-08-24T08:45:18.785Z,100627.94
2022-08-24T08:48:08.761Z,100629.53
2022-08-24T08:50:47.354Z,100625.06
2022-08-24T08:53:25.700Z,100624.06
2022-08-24T08:56:11.850Z,100626.66
2022-08-24T08:58:57.100Z,100634.50
2022-08-24T09:01:47.125Z,100638.03
2022-08-24T09:04:25.577Z,100628.94
2022-08-24T09:06:52.838Z,100632.34
2022-08-24T09:09:25.793Z,100639.50
2022-08-24T09:12:09.441Z,100635.88
2022-08-24T09:14:58.432Z,100640.34
2022-08-24T09:17:44.064Z,100638.53
2022-08-24T09:20:26.201Z,100629.59
2022-08-24T09:23:32.403Z,100635.75
2022-08-24T09:26:10.816Z,100647.00
2022-08-24T09:28:53.789Z,100647.75
2022-08-24T09:31:44.506Z,100645.94
2022-08-24T09:34:28.377Z,100644.03
2022-08-24T09:37:01.750Z,100657.34
2022-08-24T09:39:44.893Z,100654.56
2022-08-24T09:42:17.925Z,100657.94
2022-08-24T09:45:11.341Z,100645.47
2022-08-24T09:47:41.065Z,100656.00
2022-08-24T09:50:35.604Z,100659.53
2022-08-24T09:53:07.746Z,100650.69
2022-08-24T09:55:53.725Z,100647.91
2022-08-24T09:58:35.845Z,100643.53
2022-08-24T10:01:28.675Z,100647.91
2022-08-24T10:04:17.836Z,100654.94
2022-08-24T10:07:14.869Z,100653.00
2022-08-24T10:10:00.607Z,100653.97
2022-08-24T10:12:55.978Z,100656.41
2022-08-24T10:15:39.912Z,100658.13
2022-08-24T10:18:27.042Z,100656.41
2022-08-24T10:21:01.768Z,100660.03
2022-08-24T10:23:39.880Z,100665.16
2022-08-24T10:26:34.582Z,100663.22
2022-08-24T10:29:32.637Z,100667.34
2022-08-24T10:32:16.485Z,100666.63
2022-08-24T10:34:48.218Z,100671.22
2022-08-24T10:37:27.476Z,100664.06
2022-08-24T10:40:14.378Z,100665.88
2022-08-24T10:43:26.875Z,100673.88
2022-08-24T10:46:22.931Z,100673.06
2022-08-24T10:49:03.934Z,100682.84
2022-08-24T10:51:48.683Z,100678.38
2022-08-24T10:54:21.148Z,100675.59
2022-08-24T10:57:21.322Z,100671.97
2022-08-24T10:59:50.673Z,100670.03
2022-08-24T11:02:40.680Z,100677.88
2022-08-24T11:05:30.052Z,100670.88
2022-08-24T11:08:06.911Z,100676.22
2022-08-24T11:10:41.678Z,100670.03
2022-08-24T11:13:19.837Z,100677.06
2022-08-24T11:15:52.246Z,100685.78
2022-08-24T11:18:22.203Z,100681.19
2022-08-24T11:20:54.102Z,100685.44
2022-08-24T11:23:31.601Z,100677.44
2022-08-24T11:26:13.596Z,100669.34
2022-08-24T11:28:48.834Z,100664.00
2022-08-24T11:31:42.300Z,100671.88
2022-08-24T11:34:17.604Z,100683.63
2022-08-24T11:36:46.937Z,100677.66
2022-08-24T11:39:31.544Z,100690.13
2022-08-24T11:42:19.011Z,100690.41
2022-08-24T11:44:55.325Z,100695.47
2022-08-24T11:47:38.327Z,100693.88
2022-08-24T11:50:27.553Z,100690.03
2022-08-24T11:53:18.416Z,100683.84
2022-08-24T11:56:10.994Z,100690.75
2022-08-24T11:58:50.616Z,100693.31
2022-08-24T12:01:28.276Z,100689.66
2022-08-24T12:04:14.078Z,100699.38
2022-08-24T12:07:09.046Z,100704.59
2022-08-24T12:09:56.257Z,100701.91
2022-08-24T12:12:36.073Z,100707.88
2022-08-24T12:15:09.333Z,100705.31
2022-08-24T12:17:53.554Z,100714.06
2022-08-24T12:20:33.497Z,100716.59
2022-08-24T12:23:07.579Z,100702.41
2022-08-24T12:25:54.063Z,100712.25
2022-08-24T12:28:26.337Z,100727.25
2022-08-24T12:30:54.941Z,100719.41
2022-08-24T12:33:29.542Z,100717.69
2022-08-24T12:36:02.671Z,100721.94
2022-08-24T12:38:36.080Z,100726.31
2022-08-24T12:41:19.048Z,100741.56
2022-08-24T12:43:49.240Z,100739.88
2022-08-24T12:46:21.010Z,100738.16
2022-08-24T12:49:28.603Z,100736.47
2022-08-24T12:52:13.998Z,100740.09
2022-08-24T12:55:00.227Z,100747.38
2022-08-24T12:57:51.840Z,100749.91
2022-08-24T13:00:35.220Z,100751.63
2022-08-24T13:03:07.334Z,100752.25
2022-08-24T13:05:48.920Z,100753.91
2022-08-24T13:08:34.218Z,100762.66
2022-08-24T13:11:15.507Z,100757.94
2022-08-24T13:14:25.576Z,100753.25
2022-08-24T13:16:58.819Z,100763.91
2022-08-24T13:19:29.061Z,100779.69
2022-08-24T13:22:20.384Z,100770.47
2022-08-24T13:25:24.753Z,100763.94
2022-08-24T13:28:07.321Z,100777.28
2022-08-24T13:30:51.946Z,100778.09
2022-08-24T13:33:21.064Z,100786.09
2022-08-24T13:35:47.976Z,100800.28
2022-08-24T13:38:31.203Z,100803.59
2022-08-24T13:41:27.429Z,100805.41
2022-08-24T13:44:15.262Z,100805.41
2022-08-24T13:47:05.369Z,100801.28
2022-08-24T13:49:52.461Z,100803.94
2022-08-24T13:52:45.424Z,100799.44
2022-08-24T13:55:23.264Z,100807.34
2022-08-24T13:58:27.526Z,100813.53
2022-08-24T14:01:03.368Z,100809.03
2022-08-24T14:03:53.961Z,100810.72
2022-08-24T14:06:32.410Z,100803.69
2022-08-24T14:09:30.156Z,100813.53
2022-08-24T14:12:13.259Z,100807.56
2022-08-24T14:15:02.495Z,100812.03
2022-08-24T14:17:53.818Z,100822.94
2022-08-24T14:20:28.127Z,100835.19
2022-08-24T14:23:10.252Z,100834.47
2022-08-24T14:25:37.596Z,100831.06
2022-08-24T14:28:36.333Z,100841.97
2022-08-24T14:31:18.329Z,100840.16
2022-08-24T14:33:58.103Z,100833.59
2022-08-24T14:36:46.442Z,100821.75
2022-08-24T14:39:33.292Z,100812.91
2022-08-24T14:42:18.341Z,100813.84
2022-08-24T14:45:14.412Z,100815.78
2022-08-24T14:47:59.307Z,100836.28
2022-08-24T14:50:49.717Z,100835.41
2022-08-24T14:53:22.065Z,100836.41
2022-08-24T14:56:19.980Z,100836.41
2022-08-24T14:59:10.308Z,100838.34
2022-08-24T15:01:46.865Z,100852.63
2022-08-24T15:05:01.977Z,100847.44
2022-08-24T15:07:30.691Z,100845.94
2022-08-24T15:10:00.457Z,100855.66
2022-08-24T15:13:03.326Z,100857.56
2022-08-24T15:15:40.347Z,100854.06
2022-08-24T15:18:33.636Z,100850.25
2022-08-24T15:21:09.442Z,100850.47
2022-08-24T15:24:01.114Z,100859.34
2022-08-24T15:27:06.120Z,100856.31
2022-08-24T15:29:36.447Z,100846.72
2022-08-24T15:32:09.778Z,100844.78
2022-08-24T15:34:48.732Z,100831.59
2022-08-24T15:37:25.895Z,100844.69
2022-08-24T15:39:53.307Z,100835.13
2022-08-24T15:42:21.262Z,100847.47
2022-08-24T15:44:50.707Z,100836.78
2022-08-24T15:47:32.731Z,100852.69
2022-08-24T15:50:25.990Z,100859.94
2022-08-24T15:53:03.673Z,100853.78
2022-08-24T15:55:48.814Z,100848.44
2022-08-24T15:58:40.467Z,100852.28
2022-08-24T16:01:29.751Z,100875.69
2022-08-24T16:04:08.039Z,100879.28
2022-08-24T16:06:35.345Z,100881.97
2022-08-24T16:09:05.967Z,100875.78
2022-08-24T16:11:59.062Z,100883.25
2022-08-24T16:14:29.377Z,100879.22
2022-08-24T16:16:57.482Z,100888.81
2022-08-24T16:19:35.702Z,100906.91
2022-08-24T16:22:10.939Z,100905.19
2022-08-24T16:24:41.274Z,100893.06
2022-08-24T16:27:12.349Z,100902.66
2022-08-24T16:29:39.372Z,100911.81
2022-08-24T16:32:33.211Z,100904.81
2022-08-24T16:35:11.343Z,100914.81
2022-08-24T16:37:39.593Z,100909.94
2022-08-24T16:40:08.793Z,100905.78
2022-08-24T16:42:37.146Z,100906.75
2022-08-24T16:45:10.490Z,100910.59
2022-08-24T16:47:37.503Z,100910.41
2022-08-24T16:50:06.015Z,100914.66
2022-08-24T16:52:33.337Z,100917.41
2022-08-24T16:55:01.783Z,100924.56
2022-08-24T16:57:32.437Z,100919.34
2022-08-24T17:00:00.096Z,100919.53
2022-08-24T17:02:28.060Z,100924.13
2022-08-24T17:04:55.246Z,100924.34
2022-08-24T17:07:28.981Z,100926.81
2022-08-24T17:09:57.291Z,100924.00
2022-08-24T17:12:24.947Z,100929.03
2022-08-24T17:14:52.060Z,100937.03
2022-08-24T17:17:21.881Z,100928.69
2022-08-24T17:19:53.552Z,100927.75
2022-08-24T17:22:22.808Z,100933.69
2022-08-24T17:24:52.706Z,100943.41
2022-08-24T17:27:30.112Z,100939.78
2022-08-24T17:29:58.702Z,100951.28
2022-08-24T17:32:29.155Z,100960.03
2022-08-24T17:34:56.530Z,100963.53
2022-08-24T17:37:25.355Z,100972.28
2022-08-24T17:39:58.986Z,100975.91
2022-08-24T17:42:49.711Z,100974.84
2022-08-24T17:45:14.416Z,100979.09
2022-08-24T17:47:43.610Z,100980.69
2022-08-24T17:50:13.062Z,100981.44
2022-08-24T17:52:41.684Z,100983.25
2022-08-24T17:55:11.084Z,100975.25
2022-08-24T17:57:39.354Z,100989.34
2022-08-24T18:00:12.618Z,100985.63
2022-08-24T18:02:44.286Z,100994.34
2022-08-24T18:05:16.153Z,100994.13
2022-08-24T18:07:54.075Z,100999.47
2022-08-24T18:10:28.647Z,101002.00
2022-08-24T18:12:58.877Z,101003.94
2022-08-24T18:15:35.505Z,101002.78
2022-08-24T18:18:08.797Z,101010.56
2022-08-24T18:20:40.078Z,101012.16
2022-08-24T18:23:11.898Z,101017.38
2022-08-24T18:25:47.455Z,101020.03
2022-08-24T18:28:15.834Z,101026.09
2022-08-24T18:30:45.687Z,101026.09
2022-08-24T18:33:13.431Z,101033.16
2022-08-24T18:35:40.827Z,101034.88
2022-08-24T18:38:08.479Z,101041.88
2022-08-24T18:40:36.384Z,101042.88
2022-08-24T18:43:04.816Z,101050.75
2022-08-24T18:45:33.486Z,101055.13
2022-08-24T18:48:01.493Z,101055.00
2022-08-24T18:50:29.562Z,101055.00
2022-08-24T18:52:58.946Z,101064.72
2022-08-24T18:55:27.161Z,101068.97
2022-08-24T18:57:56.201Z,101070.78
2022-08-24T19:00:23.493Z,101069.94
2022-08-24T19:03:00.212Z,101078.03
2022-08-24T19:05:27.951Z,101082.41
2022-08-24T19:07:55.417Z,101086.78
2022-08-24T19:10:27.920Z,101085.81
2022-08-24T19:13:01.039Z,101091.91
2022-08-24T19:15:39.634Z,101094.56
2022-08-24T19:18:13.730Z,101108.84
2022-08-24T19:20:48.275Z,101105.25
2022-08-24T19:23:29.278Z,101117.81
2022-08-24T19:25:58.578Z,101120.47
2022-08-24T19:28:27.595Z,101117.81
2022-08-24T19:30:58.073Z,101125.81
2022-08-24T19:33:30.542Z,101124.13
2022-08-24T19:36:00.032Z,101137.25
2022-08-24T19:38:27.332Z,101131.69
2022-08-24T19:40:57.798Z,101124.66
2022-08-24T19:43:34.187Z,101125.72
2022-08-24T19:46:08.466Z,101138.19
2022-08-24T19:48:39.408Z,101139.91
2022-08-24T19:51:08.924Z,101139.69
2022-08-24T19:53:39.300Z,101143.97
2022-08-24T19:56:13.788Z,101133.16
2022-08-24T19:58:48.061Z,101133.91
2022-08-24T20:01:47.078Z,101139.25
2022-08-24T20:04:16.808Z,101144.50
2022-08-24T20:06:45.043Z,101140.84
2022-08-24T20:09:13.217Z,101145.22
2022-08-24T20:11:40.927Z,101147.78
2022-08-24T20:14:09.745Z,101152.16
2022-08-24T20:16:42.591Z,101159.22
2022-08-24T20:19:12.673Z,101150.44
2022-08-24T20:21:41.483Z,101141.69
2022-08-24T20:24:09.828Z,101151.28
2022-08-24T20:26:43.414Z,101150.69
2022-08-24T20:29:12.416Z,101134.88
2022-08-24T20:31:42.853Z,101157.09
2022-08-24T20:34:14.063Z,101161.34
2022-08-24T20:36:43.941Z,101162.41
2022-08-24T20:39:14.030Z,101161.56
2022-08-24T20:41:41.391Z,101175.84
2022-08-24T20:44:10.286Z,101176.78
2022-08-24T20:46:40.556Z,101169.66
2022-08-24T20:49:10.620Z,101170.63
2022-08-24T20:51:43.361Z,101164.31
2022-08-24T20:54:17.924Z,101163.47
2022-08-24T20:56:46.632Z,101162.41
2022-08-24T20:59:15.756Z,101156.97
2022-08-24T21:01:43.430Z,101157.81
2022-08-24T21:04:11.661Z,101149.09
2022-08-24T21:06:42.182Z,101157.91
2022-08-24T21:09:14.016Z,101150.78
2022-08-24T21:11:44.533Z,101163.25
2022-08-24T21:14:13.555Z,101157.91
2022-08-24T21:16:44.935Z,101161.56
2022-08-24T21:19:17.985Z,101161.56
2022-08-24T21:21:48.326Z,101163.47
2022-08-24T21:24:16.997Z,101180.44
2022-08-24T21:26:46.104Z,101191.00
2022-08-24T21:29:13.200Z,101199.09
2022-08-24T21:31:42.764Z,101201.03
2022-08-24T21:34:30.242Z,101206.59
2022-08-24T21:36:58.381Z,101204.66
2022-08-24T21:39:29.672Z,101210.00
2022-08-24T21:41:56.722Z,101213.59
2022-08-24T21:44:24.708Z,101213.06
2022-08-24T21:46:52.248Z,101210.59
2022-08-24T21:49:20.598Z,101207.19
2022-08-24T21:51:47.829Z,101217.13
2022-08-24T21:54:14.970Z,101220.84
2022-08-24T21:56:42.189Z,101227.06
2022-08-24T21:59:09.273Z,101227.25
2022-08-24T22:01:36.508Z,101229.19
2022-08-24T22:04:07.081Z,101226.59
2022-08-24T22:06:34.182Z,101228.53
2022-08-24T22:09:02.099Z,101241.94
2022-08-24T22:11:30.503Z,101246.53
2022-08-24T22:13:58.157Z,101242.16
2022-08-24T22:16:26.007Z,101242.16
2022-08-24T22:18:53.236Z,101234.38
2022-08-24T22:21:24.428Z,101238.00
2022-08-24T22:23:52.135Z,101236.25
2022-08-24T22:26:23.083Z,101239.06
2022-08-24T22:28:50.965Z,101243.53
2022-08-24T22:31:25.553Z,101248.06
2022-08-24T22:33:54.457Z,101240.19
2022-08-24T22:36:24.542Z,101240.28
2022-08-24T22:38:52.277Z,101250.09
2022-08-24T22:41:22.266Z,101248.47
2022-08-24T22:44:11.165Z,101240.69
2022-08-24T22:46:39.720Z,101240.69
2022-08-24T22:49:08.473Z,101257.66
2022-08-24T22:51:36.870Z,101252.31
2022-08-24T22:54:04.452Z,101249.72
2022-08-24T22:56:35.391Z,101243.56
2022-08-24T22:59:03.229Z,101242.81
2022-08-24T23:01:36.982Z,101239.28
2022-08-24T23:04:07.410Z,101246.44
2022-08-24T23:06:37.796Z,101257.19
2022-08-24T23:09:07.622Z,101258.16
2022-08-24T23:11:35.341Z,101257.28
2022-08-24T23:14:04.023Z,101259.97
2022-08-24T23:16:33.347Z,101261.88
2022-08-24T23:19:18.839Z,101246.97
2022-08-24T23:21:46.548Z,101253.31
2022-08-24T23:24:14.304Z,101262.06
2022-08-24T23:26:42.620Z,101257.88
2022-08-24T23:29:11.648Z,101251.63
2022-08-24T23:31:42.619Z,101255.22
2022-08-24T23:34:10.683Z,101254.38
2022-08-24T23:36:38.659Z,101267.69
2022-08-24T23:39:07.901Z,101273.13
2022-08-24T23:41:38.504Z,101267.91
2022-08-24T23:44:12.055Z,101264.41
2022-08-24T23:46:39.987Z,101280.38
2022-08-24T23:49:07.596Z,101271.63
2022-08-24T23:51:36.675Z,101263.66
2022-08-24T23:54:06.179Z,101273.44
2022-08-24T23:56:36.048Z,101277.91
2022-08-24T23:59:09.631Z,101271.72
